Aviation Digital Data Service (ADDS)

Output produced by METARs form (0210 UTC 21 October 2014)
found at http://aviationweather.gov/adds/metars/
 
KHYA 202326Z 2100/2124 23007KT P6SM SCT120 BKN250 
     FM210600 20004KT P6SM BKN035 
     FM211100 16006KT P6SM -SHRA OVC025 
     FM211800 17011KT 3SM -SHRA OVC025 
     FM212100 12006KT P6SM BKN015